Wetterdaten: Woche 23.08.10 - 29.08.10 (KW34)
Datum Zeit Temperatur Luftfeuchte Luftdruck Niederschlag Wind Richtung Sonnenschein Solar Taupunkt Windchill Windben
23.08.2010 00:00 19.6 C 92 % 1013.4 hPa 0.0 l/m 0.5 km/h (0 Bft) O-SO 0.00 h 0 W/m 18.2 C 19.6 C 1.3 km/h (1 Bft)
23.08.2010 01:00 19.2 C 93 % 1013.1 hPa 0.0 l/m 0.1 km/h (0 Bft) O-SO 0.00 h 0 W/m 18.1 C 19.2 C 0.5 km/h (0 Bft)
23.08.2010 02:00 18.9 C 94 % 1012.0 hPa 0.0 l/m 0.0 km/h (0 Bft) O-SO 0.00 h 0 W/m 18.0 C 18.9 C 0.6 km/h (0 Bft)
23.08.2010 03:00 18.6 C 94 % 1010.8 hPa 0.0 l/m 0.0 km/h (0 Bft) O-SO 0.00 h 0 W/m 17.7 C 18.6 C 0.4 km/h (0 Bft)
23.08.2010 04:00 18.0 C 96 % 1010.2 hPa 0.0 l/m 0.3 km/h (0 Bft) O-SO 0.00 h 0 W/m 17.3 C 18.0 C 0.9 km/h (0 Bft)
23.08.2010 05:00 17.8 C 95 % 1010.0 hPa 0.0 l/m 1.6 km/h (1 Bft) O-SO 0.00 h 0 W/m 17.1 C 17.8 C 2.5 km/h (1 Bft)
23.08.2010 06:00 17.8 C 96 % 1009.7 hPa 0.0 l/m 0.4 km/h (0 Bft) O-SO 0.08 h 9 W/m 17.2 C 17.8 C 0.9 km/h (0 Bft)
23.08.2010 07:00 18.0 C 96 % 1009.9 hPa 0.0 l/m 0.3 km/h (0 Bft) O-SO 0.00 h 25 W/m 17.4 C 18.0 C 1.0 km/h (0 Bft)
23.08.2010 08:00 18.7 C 96 % 1010.2 hPa 0.4 l/m 0.4 km/h (0 Bft) SO 0.05 h 90 W/m 18.1 C 18.7 C 1.2 km/h (1 Bft)
23.08.2010 09:00 19.9 C 95 % 1010.7 hPa 0.0 l/m 2.6 km/h (1 Bft) W-SW 0.00 h 145 W/m 19.1 C 19.9 C 5.0 km/h (1 Bft)
23.08.2010 10:00 20.3 C 92 % 1011.3 hPa 0.4 l/m 4.1 km/h (1 Bft) W-SW 0.00 h 147 W/m 19.0 C 20.3 C 7.7 km/h (2 Bft)
23.08.2010 11:00 20.0 C 94 % 1011.4 hPa 0.4 l/m 0.6 km/h (0 Bft) W-SW 0.00 h 105 W/m 19.0 C 20.0 C 2.3 km/h (1 Bft)
23.08.2010 12:00 20.6 C 93 % 1010.7 hPa 0.2 l/m 0.7 km/h (0 Bft) SO 0.00 h 192 W/m 19.4 C 20.6 C 2.2 km/h (1 Bft)
23.08.2010 13:00 20.8 C 93 % 1009.5 hPa 0.0 l/m 1.4 km/h (1 Bft) S-SO 0.00 h 135 W/m 19.5 C 20.8 C 3.3 km/h (1 Bft)
23.08.2010 14:00 20.7 C 95 % 1009.3 hPa 0.0 l/m 0.7 km/h (0 Bft) W 0.00 h 95 W/m 19.8 C 20.7 C 1.6 km/h (1 Bft)
23.08.2010 15:00 21.3 C 94 % 1008.3 hPa 0.0 l/m 0.8 km/h (0 Bft) N 0.00 h 240 W/m 20.3 C 21.3 C 2.2 km/h (1 Bft)
23.08.2010 16:00 21.8 C 91 % 1007.7 hPa 0.0 l/m 0.9 km/h (0 Bft) W-NW 0.03 h 223 W/m 20.3 C 21.8 C 2.2 km/h (1 Bft)
23.08.2010 17:00 22.4 C 89 % 1007.6 hPa 0.0 l/m 0.3 km/h (0 Bft) W-NW 0.25 h 208 W/m 20.5 C 22.4 C 1.3 km/h (1 Bft)
23.08.2010 18:00 22.9 C 86 % 1007.1 hPa 0.0 l/m 0.9 km/h (0 Bft) S-SO 0.48 h 170 W/m 20.4 C 22.9 C 2.6 km/h (1 Bft)
23.08.2010 19:00 22.6 C 88 % 1007.0 hPa 0.0 l/m 0.2 km/h (0 Bft) S 0.45 h 70 W/m 20.5 C 22.6 C 1.1 km/h (1 Bft)
23.08.2010 20:00 21.5 C 92 % 1007.1 hPa 0.0 l/m 0.5 km/h (0 Bft) S 0.00 h 9 W/m 20.1 C 21.5 C 0.9 km/h (0 Bft)
23.08.2010 21:00 20.6 C 95 % 1007.7 hPa 0.0 l/m 1.0 km/h (0 Bft) O-SO 0.00 h 0 W/m 19.8 C 20.6 C 1.4 km/h (1 Bft)
23.08.2010 22:00 20.1 C 95 % 1008.0 hPa 0.0 l/m 1.1 km/h (0 Bft) O-SO 0.00 h 0 W/m 19.3 C 20.1 C 2.2 km/h (1 Bft)
23.08.2010 23:00 20.1 C 89 % 1008.4 hPa 0.6 l/m 9.9 km/h (2 Bft) W 0.00 h 0 W/m 18.3 C 20.1 C 15.2 km/h (3 Bft)
24.08.2010 00:00 19.2 C 95 % 1008.8 hPa 0.0 l/m 1.2 km/h (1 Bft) O-SO 0.00 h 0 W/m 18.4 C 19.2 C 2.2 km/h (1 Bft)
24.08.2010 01:00 19.1 C 95 % 1009.7 hPa 0.0 l/m 4.5 km/h (1 Bft) W 0.00 h 0 W/m 18.3 C 19.1 C 7.7 km/h (2 Bft)
24.08.2010 02:00 19.1 C 93 % 1009.8 hPa 0.0 l/m 3.6 km/h (1 Bft) W-NW 0.00 h 0 W/m 17.9 C 19.1 C 6.2 km/h (2 Bft)
24.08.2010 03:00 18.8 C 94 % 1009.5 hPa 0.0 l/m 0.4 km/h (0 Bft) S-SO 0.00 h 0 W/m 17.8 C 18.8 C 2.1 km/h (1 Bft)
24.08.2010 04:00 18.3 C 96 % 1009.3 hPa 0.0 l/m 0.4 km/h (0 Bft) W-SW 0.00 h 0 W/m 17.7 C 18.3 C 2.1 km/h (1 Bft)
24.08.2010 05:00 18.4 C 96 % 1009.0 hPa 0.0 l/m 0.3 km/h (0 Bft) S-SO 0.00 h 0 W/m 17.7 C 18.4 C 1.4 km/h (1 Bft)
24.08.2010 06:00 18.4 C 96 % 1009.2 hPa 0.4 l/m 0.5 km/h (0 Bft) S-SO 0.07 h 12 W/m 17.8 C 18.4 C 1.8 km/h (1 Bft)
24.08.2010 07:00 18.4 C 97 % 1009.2 hPa 0.0 l/m 0.4 km/h (0 Bft) S-SO 0.07 h 40 W/m 18.0 C 18.4 C 1.1 km/h (1 Bft)
24.08.2010 08:00 19.5 C 95 % 1009.1 hPa 0.0 l/m 0.5 km/h (0 Bft) SO 0.10 h 108 W/m 18.7 C 19.5 C 1.6 km/h (1 Bft)
24.08.2010 09:00 20.8 C 92 % 1009.2 hPa 0.0 l/m 1.3 km/h (1 Bft) SW 0.35 h 277 W/m 19.4 C 20.8 C 3.9 km/h (1 Bft)
24.08.2010 10:00 21.4 C 93 % 1009.8 hPa 0.4 l/m 2.5 km/h (1 Bft) W 0.40 h 418 W/m 20.2 C 21.4 C 4.9 km/h (1 Bft)
24.08.2010 11:00 21.4 C 85 % 1010.4 hPa 0.0 l/m 10.8 km/h (2 Bft) W 0.35 h 385 W/m 18.7 C 21.4 C 17.2 km/h (3 Bft)
24.08.2010 12:00 22.5 C 83 % 1010.3 hPa 0.0 l/m 9.1 km/h (2 Bft) W 0.58 h 558 W/m 19.4 C 22.5 C 14.8 km/h (3 Bft)
24.08.2010 13:00 22.7 C 81 % 1010.0 hPa 3.4 l/m 10.5 km/h (2 Bft) W 0.47 h 395 W/m 19.3 C 22.7 C 16.7 km/h (3 Bft)
24.08.2010 14:00 19.5 C 96 % 1011.5 hPa 4.8 l/m 13.9 km/h (3 Bft) W 0.10 h 231 W/m 18.9 C 19.5 C 21.7 km/h (4 Bft)
24.08.2010 15:00 19.4 C 87 % 1012.4 hPa 0.0 l/m 24.1 km/h (4 Bft) W 1.00 h 625 W/m 17.2 C 19.4 C 36.3 km/h (5 Bft)
24.08.2010 16:00 19.6 C 79 % 1013.6 hPa 0.0 l/m 20.7 km/h (4 Bft) W 0.60 h 451 W/m 15.8 C 19.6 C 31.1 km/h (5 Bft)
24.08.2010 17:00 18.7 C 78 % 1014.8 hPa 0.0 l/m 17.0 km/h (3 Bft) W 0.57 h 302 W/m 14.7 C 18.7 C 25.8 km/h (4 Bft)
24.08.2010 18:00 18.9 C 77 % 1015.1 hPa 0.0 l/m 11.4 km/h (2 Bft) W 0.43 h 167 W/m 14.7 C 18.9 C 18.1 km/h (3 Bft)
24.08.2010 19:00 18.5 C 76 % 1015.1 hPa 0.0 l/m 10.5 km/h (2 Bft) W 0.42 h 66 W/m 14.2 C 18.5 C 16.0 km/h (3 Bft)
24.08.2010 20:00 17.5 C 78 % 1015.8 hPa 0.0 l/m 9.2 km/h (2 Bft) W 0.00 h 11 W/m 13.7 C 17.5 C 14.3 km/h (3 Bft)
24.08.2010 21:00 16.7 C 81 % 1016.6 hPa 0.0 l/m 2.2 km/h (1 Bft) W 0.00 h 0 W/m 13.4 C 16.7 C 4.2 km/h (1 Bft)
24.08.2010 22:00 15.7 C 87 % 1017.3 hPa 0.0 l/m 0.7 km/h (0 Bft) SO 0.00 h 0 W/m 13.5 C 15.7 C 2.0 km/h (1 Bft)
24.08.2010 23:00 15.3 C 88 % 1017.9 hPa 0.0 l/m 0.1 km/h (0 Bft) SW 0.00 h 0 W/m 13.3 C 15.3 C 0.8 km/h (0 Bft)
25.08.2010 00:00 13.9 C 94 % 1018.4 hPa 0.0 l/m 1.5 km/h (1 Bft) O 0.00 h 0 W/m 12.9 C 13.9 C 2.6 km/h (1 Bft)
25.08.2010 01:00 13.2 C 95 % 1018.8 hPa 0.0 l/m 0.2 km/h (0 Bft) O 0.00 h 0 W/m 12.5 C 13.2 C 0.7 km/h (0 Bft)
25.08.2010 02:00 12.6 C 97 % 1019.2 hPa 0.0 l/m 0.4 km/h (0 Bft) O 0.00 h 0 W/m 12.1 C 12.6 C 1.1 km/h (0 Bft)
25.08.2010 03:00 12.0 C 97 % 1019.2 hPa 0.0 l/m 0.1 km/h (0 Bft) O-NO 0.00 h 0 W/m 11.6 C 12.0 C 0.2 km/h (0 Bft)
25.08.2010 04:00 11.4 C 97 % 1019.3 hPa 0.0 l/m 0.2 km/h (0 Bft) O-NO 0.00 h 0 W/m 10.9 C 11.4 C 0.7 km/h (0 Bft)
25.08.2010 05:00 11.0 C 97 % 1019.3 hPa 0.0 l/m 0.0 km/h (0 Bft) N 0.00 h 0 W/m 10.6 C 11.0 C 0.1 km/h (0 Bft)
25.08.2010 06:00 10.9 C 98 % 1019.5 hPa 0.0 l/m 0.0 km/h (0 Bft) O-NO 0.00 h 9 W/m 10.6 C 10.9 C 0.2 km/h (0 Bft)
25.08.2010 07:00 11.0 C 98 % 1019.7 hPa 0.0 l/m 0.0 km/h (0 Bft) N 0.00 h 50 W/m 10.7 C 11.0 C 0.3 km/h (0 Bft)
25.08.2010 08:00 12.6 C 95 % 1019.7 hPa 0.0 l/m 0.2 km/h (0 Bft) O-NO 0.70 h 218 W/m 11.8 C 12.6 C 0.8 km/h (0 Bft)
25.08.2010 09:00 14.1 C 90 % 1019.6 hPa 0.0 l/m 0.9 km/h (0 Bft) N-NW 0.60 h 330 W/m 12.6 C 14.1 C 2.2 km/h (1 Bft)
25.08.2010 10:00 17.0 C 81 % 1019.3 hPa 0.0 l/m 0.9 km/h (0 Bft) NW 1.00 h 546 W/m 13.7 C 17.0 C 2.2 km/h (1 Bft)
25.08.2010 11:00 19.1 C 70 % 1019.1 hPa 0.0 l/m 1.6 km/h (1 Bft) NW 1.00 h 672 W/m 13.4 C 19.1 C 3.4 km/h (1 Bft)
25.08.2010 12:00 20.2 C 66 % 1018.8 hPa 0.0 l/m 2.0 km/h (1 Bft) SO 1.00 h 698 W/m 13.7 C 20.2 C 4.2 km/h (1 Bft)
25.08.2010 13:00 21.2 C 63 % 1018.5 hPa 0.0 l/m 1.3 km/h (1 Bft) NO 0.97 h 633 W/m 13.9 C 21.2 C 3.2 km/h (1 Bft)
25.08.2010 14:00 21.8 C 61 % 1018.0 hPa 0.0 l/m 2.6 km/h (1 Bft) W 1.00 h 757 W/m 14.0 C 21.8 C 4.7 km/h (1 Bft)
25.08.2010 15:00 23.0 C 57 % 1017.6 hPa 0.0 l/m 4.1 km/h (1 Bft) W 1.00 h 714 W/m 13.9 C 23.0 C 7.2 km/h (2 Bft)
25.08.2010 16:00 23.0 C 57 % 1017.3 hPa 0.0 l/m 4.0 km/h (1 Bft) W 0.62 h 381 W/m 13.8 C 23.0 C 6.8 km/h (2 Bft)
25.08.2010 17:00 22.4 C 62 % 1017.1 hPa 0.0 l/m 3.7 km/h (1 Bft) W-NW 0.57 h 266 W/m 14.7 C 22.4 C 6.0 km/h (2 Bft)
25.08.2010 18:00 22.6 C 61 % 1016.9 hPa 0.0 l/m 3.8 km/h (1 Bft) W 0.58 h 208 W/m 14.8 C 22.6 C 5.9 km/h (2 Bft)
25.08.2010 19:00 21.1 C 70 % 1016.9 hPa 0.0 l/m 0.4 km/h (0 Bft) W 0.00 h 41 W/m 15.4 C 21.1 C 1.3 km/h (1 Bft)
25.08.2010 20:00 19.7 C 79 % 1017.0 hPa 0.0 l/m 1.3 km/h (1 Bft) O-SO 0.00 h 10 W/m 15.9 C 19.7 C 2.1 km/h (1 Bft)
25.08.2010 21:00 18.5 C 83 % 1017.4 hPa 0.0 l/m 2.6 km/h (1 Bft) O-SO 0.00 h 0 W/m 15.6 C 18.5 C 4.1 km/h (1 Bft)
25.08.2010 22:00 17.8 C 86 % 1017.3 hPa 0.0 l/m 1.4 km/h (1 Bft) O-SO 0.00 h 0 W/m 15.5 C 17.8 C 2.1 km/h (1 Bft)
25.08.2010 23:00 16.9 C 89 % 1017.6 hPa 0.0 l/m 0.1 km/h (0 Bft) O-SO 0.00 h 0 W/m 15.1 C 16.9 C 0.3 km/h (0 Bft)
26.08.2010 00:00 16.0 C 91 % 1017.7 hPa 0.0 l/m 2.0 km/h (1 Bft) O-SO 0.00 h 0 W/m 14.6 C 16.0 C 3.4 km/h (1 Bft)
26.08.2010 01:00 15.5 C 93 % 1017.7 hPa 0.0 l/m 3.0 km/h (1 Bft) O-SO 0.00 h 0 W/m 14.3 C 15.5 C 4.5 km/h (1 Bft)
26.08.2010 02:00 15.0 C 94 % 1017.6 hPa 0.0 l/m 0.1 km/h (0 Bft) O-SO 0.00 h 0 W/m 14.0 C 15.0 C 0.5 km/h (0 Bft)
26.08.2010 03:00 14.6 C 95 % 1017.3 hPa 0.0 l/m 0.0 km/h (0 Bft) N 0.00 h 0 W/m 13.8 C 14.6 C 0.1 km/h (0 Bft)
26.08.2010 04:00 14.2 C 96 % 1017.0 hPa 0.0 l/m 0.0 km/h (0 Bft) N 0.00 h 0 W/m 13.6 C 14.2 C 0.0 km/h (0 Bft)
26.08.2010 05:00 14.2 C 96 % 1016.7 hPa 0.0 l/m 0.0 km/h (0 Bft) N 0.00 h 0 W/m 13.7 C 14.2 C 0.0 km/h (0 Bft)
26.08.2010 06:00 14.1 C 96 % 1016.6 hPa 0.0 l/m 0.0 km/h (0 Bft) N 0.02 h 9 W/m 13.5 C 14.1 C 0.0 km/h (0 Bft)
26.08.2010 07:00 14.4 C 96 % 1016.6 hPa 0.0 l/m 0.0 km/h (0 Bft) N 0.00 h 42 W/m 13.8 C 14.4 C 0.0 km/h (0 Bft)
26.08.2010 08:00 16.1 C 92 % 1016.3 hPa 0.0 l/m 0.0 km/h (0 Bft) N 0.25 h 152 W/m 14.9 C 16.1 C 0.0 km/h (0 Bft)
26.08.2010 09:00 18.3 C 87 % 1015.7 hPa 0.0 l/m 0.0 km/h (0 Bft) N 0.62 h 327 W/m 16.1 C 18.3 C 0.0 km/h (0 Bft)
26.08.2010 10:00 21.9 C 75 % 1015.2 hPa 0.0 l/m 2.7 km/h (1 Bft) S-SO 1.00 h 538 W/m 17.1 C 21.9 C 5.7 km/h (1 Bft)
26.08.2010 11:00 24.2 C 66 % 1014.7 hPa 0.0 l/m 6.3 km/h (2 Bft) S-SO 1.00 h 655 W/m 17.5 C 24.2 C 12.6 km/h (3 Bft)
26.08.2010 12:00 26.3 C 63 % 1014.0 hPa 0.0 l/m 4.6 km/h (1 Bft) S-SO 1.00 h 728 W/m 18.7 C 26.3 C 9.4 km/h (2 Bft)
26.08.2010 13:00 27.5 C 62 % 1013.3 hPa 0.0 l/m 3.3 km/h (1 Bft) S-SO 1.00 h 749 W/m 19.6 C 27.5 C 7.3 km/h (2 Bft)
26.08.2010 14:00 28.3 C 61 % 1012.6 hPa 0.0 l/m 2.4 km/h (1 Bft) S-SO 1.00 h 714 W/m 20.1 C 28.3 C 5.3 km/h (1 Bft)
26.08.2010 15:00 29.1 C 59 % 1011.9 hPa 0.0 l/m 2.2 km/h (1 Bft) W-NW 1.00 h 648 W/m 20.3 C 29.1 C 4.4 km/h (1 Bft)
26.08.2010 16:00 29.8 C 58 % 1010.8 hPa 0.0 l/m 1.3 km/h (1 Bft) NW 0.98 h 530 W/m 20.5 C 29.8 C 3.1 km/h (1 Bft)
26.08.2010 17:00 28.9 C 61 % 1009.7 hPa 0.0 l/m 0.8 km/h (0 Bft) W-NW 0.40 h 242 W/m 20.6 C 28.9 C 1.8 km/h (1 Bft)
26.08.2010 18:00 27.9 C 68 % 1008.8 hPa 0.0 l/m 0.4 km/h (0 Bft) O-SO 0.18 h 119 W/m 21.3 C 27.9 C 1.5 km/h (1 Bft)
26.08.2010 19:00 25.5 C 79 % 1008.4 hPa 0.0 l/m 2.1 km/h (1 Bft) O-SO 0.00 h 44 W/m 21.5 C 25.5 C 3.1 km/h (1 Bft)
26.08.2010 20:00 23.8 C 81 % 1008.0 hPa 0.0 l/m 3.7 km/h (1 Bft) O-SO 0.00 h 5 W/m 20.3 C 23.8 C 5.1 km/h (1 Bft)
26.08.2010 21:00 22.4 C 86 % 1007.6 hPa 0.0 l/m 1.6 km/h (1 Bft) O 0.00 h 0 W/m 19.9 C 22.4 C 2.9 km/h (1 Bft)
26.08.2010 22:00 21.8 C 89 % 1006.7 hPa 0.0 l/m 2.0 km/h (1 Bft) O-SO 0.00 h 0 W/m 19.9 C 21.8 C 3.3 km/h (1 Bft)
26.08.2010 23:00 21.3 C 93 % 1006.2 hPa 0.0 l/m 0.6 km/h (0 Bft) O 0.00 h 0 W/m 20.1 C 21.3 C 2.0 km/h (1 Bft)
27.08.2010 00:00 21.0 C 95 % 1006.1 hPa 0.0 l/m 2.0 km/h (1 Bft) O-NO 0.00 h 0 W/m 20.1 C 21.0 C 3.6 km/h (1 Bft)
27.08.2010 01:00 21.0 C 93 % 1006.6 hPa 0.2 l/m 4.2 km/h (1 Bft) W 0.00 h 0 W/m 19.8 C 21.0 C 6.8 km/h (2 Bft)
27.08.2010 02:00 21.9 C 84 % 1006.8 hPa 0.2 l/m 7.0 km/h (2 Bft) W 0.00 h 0 W/m 19.0 C 21.9 C 11.2 km/h (2 Bft)
27.08.2010 03:00 22.5 C 80 % 1006.8 hPa 0.0 l/m 3.1 km/h (1 Bft) W 0.00 h 0 W/m 18.8 C 22.5 C 5.6 km/h (1 Bft)
27.08.2010 04:00 22.2 C 81 % 1006.7 hPa 0.0 l/m 2.4 km/h (1 Bft) S-SW 0.00 h 0 W/m 18.8 C 22.2 C 4.2 km/h (1 Bft)
27.08.2010 05:00 22.1 C 81 % 1006.7 hPa 0.0 l/m 3.5 km/h (1 Bft) S-SO 0.00 h 0 W/m 18.6 C 22.1 C 7.2 km/h (2 Bft)
27.08.2010 06:00 21.5 C 81 % 1006.9 hPa 0.2 l/m 5.2 km/h (1 Bft) S-SO 0.00 h 0 W/m 18.1 C 21.5 C 9.9 km/h (2 Bft)
27.08.2010 07:00 19.0 C 90 % 1008.7 hPa 1.4 l/m 11.7 km/h (2 Bft) W 0.00 h 8 W/m 17.4 C 19.0 C 18.7 km/h (3 Bft)
27.08.2010 08:00 18.1 C 95 % 1009.6 hPa 1.0 l/m 2.5 km/h (1 Bft) W 0.00 h 22 W/m 17.4 C 18.1 C 5.4 km/h (1 Bft)
27.08.2010 09:00 18.1 C 96 % 1009.9 hPa 0.8 l/m 1.1 km/h (0 Bft) S-SO 0.00 h 50 W/m 17.4 C 18.1 C 3.5 km/h (1 Bft)
27.08.2010 10:00 17.5 C 96 % 1010.5 hPa 5.0 l/m 2.4 km/h (1 Bft) W-SW 0.00 h 58 W/m 16.9 C 17.5 C 5.6 km/h (1 Bft)
27.08.2010 11:00 17.7 C 96 % 1011.0 hPa 0.4 l/m 3.1 km/h (1 Bft) S 0.00 h 161 W/m 17.1 C 17.7 C 7.2 km/h (2 Bft)
27.08.2010 12:00 19.9 C 92 % 1010.3 hPa 0.0 l/m 3.3 km/h (1 Bft) S 0.80 h 676 W/m 18.5 C 19.9 C 7.5 km/h (2 Bft)
27.08.2010 13:00 21.5 C 85 % 1009.0 hPa 0.0 l/m 4.4 km/h (1 Bft) SW 0.57 h 585 W/m 18.9 C 21.5 C 9.3 km/h (2 Bft)
27.08.2010 14:00 22.2 C 80 % 1008.0 hPa 0.0 l/m 4.1 km/h (1 Bft) S-SW 0.20 h 378 W/m 18.6 C 22.2 C 9.1 km/h (2 Bft)
27.08.2010 15:00 23.4 C 78 % 1007.5 hPa 0.0 l/m 3.5 km/h (1 Bft) W-SW 0.78 h 588 W/m 19.4 C 23.4 C 6.6 km/h (2 Bft)
27.08.2010 16:00 22.5 C 77 % 1007.2 hPa 2.0 l/m 7.1 km/h (2 Bft) W 0.15 h 188 W/m 18.2 C 22.5 C 11.4 km/h (2 Bft)
27.08.2010 17:00 19.8 C 93 % 1007.5 hPa 0.2 l/m 3.3 km/h (1 Bft) S-SW 0.20 h 250 W/m 18.6 C 19.8 C 6.7 km/h (2 Bft)
27.08.2010 18:00 19.3 C 91 % 1007.2 hPa 0.0 l/m 6.4 km/h (2 Bft) W 0.15 h 100 W/m 17.7 C 19.3 C 10.4 km/h (2 Bft)
27.08.2010 19:00 19.2 C 89 % 1007.4 hPa 0.2 l/m 2.4 km/h (1 Bft) W 0.00 h 17 W/m 17.4 C 19.2 C 5.3 km/h (1 Bft)
27.08.2010 20:00 18.5 C 87 % 1008.5 hPa 0.8 l/m 9.9 km/h (2 Bft) W 0.00 h 0 W/m 16.3 C 18.5 C 15.8 km/h (3 Bft)
27.08.2010 21:00 17.3 C 96 % 1009.2 hPa 1.6 l/m 3.0 km/h (1 Bft) S-SO 0.00 h 0 W/m 16.6 C 17.3 C 6.3 km/h (2 Bft)
27.08.2010 22:00 17.3 C 96 % 1009.1 hPa 2.2 l/m 2.0 km/h (1 Bft) S-SO 0.00 h 0 W/m 16.7 C 17.3 C 4.5 km/h (1 Bft)
27.08.2010 23:00 17.4 C 97 % 1009.1 hPa 1.4 l/m 1.1 km/h (1 Bft) O-SO 0.00 h 0 W/m 16.8 C 17.4 C 2.8 km/h (1 Bft)
28.08.2010 00:00 17.2 C 97 % 1009.4 hPa 1.0 l/m 2.6 km/h (1 Bft) W-SW 0.00 h 0 W/m 16.8 C 17.2 C 5.6 km/h (1 Bft)
28.08.2010 01:00 17.1 C 98 % 1010.0 hPa 0.2 l/m 8.0 km/h (2 Bft) W 0.00 h 0 W/m 16.8 C 17.1 C 14.0 km/h (3 Bft)
28.08.2010 02:00 16.9 C 98 % 1010.5 hPa 0.8 l/m 11.5 km/h (2 Bft) W 0.00 h 0 W/m 16.6 C 16.9 C 18.6 km/h (3 Bft)
28.08.2010 03:00 16.4 C 98 % 1010.7 hPa 0.0 l/m 8.8 km/h (2 Bft) W 0.00 h 0 W/m 16.1 C 16.4 C 14.5 km/h (3 Bft)
28.08.2010 04:00 16.7 C 97 % 1010.9 hPa 0.2 l/m 2.5 km/h (1 Bft) W 0.00 h 0 W/m 16.2 C 16.7 C 5.1 km/h (1 Bft)
28.08.2010 05:00 16.5 C 97 % 1011.2 hPa 1.4 l/m 9.1 km/h (2 Bft) W 0.00 h 0 W/m 16.0 C 16.5 C 14.7 km/h (3 Bft)
28.08.2010 06:00 15.6 C 98 % 1012.0 hPa 0.2 l/m 3.7 km/h (1 Bft) W-NW 0.00 h 0 W/m 15.3 C 15.6 C 6.9 km/h (2 Bft)
28.08.2010 07:00 14.6 C 97 % 1013.4 hPa 0.0 l/m 3.4 km/h (1 Bft) W-NW 0.07 h 38 W/m 14.1 C 14.6 C 6.2 km/h (2 Bft)
28.08.2010 08:00 14.5 C 96 % 1014.6 hPa 0.0 l/m 4.1 km/h (1 Bft) W-NW 0.27 h 125 W/m 14.0 C 14.5 C 7.5 km/h (2 Bft)
28.08.2010 09:00 14.6 C 95 % 1015.4 hPa 0.0 l/m 6.3 km/h (2 Bft) W-NW 0.15 h 229 W/m 13.8 C 14.6 C 10.5 km/h (2 Bft)
28.08.2010 10:00 16.2 C 88 % 1015.9 hPa 0.0 l/m 5.9 km/h (2 Bft) W 0.52 h 388 W/m 14.2 C 16.2 C 9.3 km/h (2 Bft)
28.08.2010 11:00 15.7 C 87 % 1016.8 hPa 0.4 l/m 5.5 km/h (1 Bft) W 0.02 h 186 W/m 13.6 C 15.7 C 9.0 km/h (2 Bft)
28.08.2010 12:00 16.1 C 78 % 1017.4 hPa 0.0 l/m 6.0 km/h (2 Bft) N-NW 0.07 h 284 W/m 12.3 C 16.1 C 9.6 km/h (2 Bft)
28.08.2010 13:00 16.5 C 73 % 1017.8 hPa 0.0 l/m 6.6 km/h (2 Bft) W-NW 0.03 h 349 W/m 11.6 C 16.5 C 10.3 km/h (2 Bft)
28.08.2010 14:00 16.4 C 73 % 1018.4 hPa 0.0 l/m 4.8 km/h (1 Bft) W-NW 0.07 h 295 W/m 11.5 C 16.4 C 7.9 km/h (2 Bft)
28.08.2010 15:00 16.4 C 78 % 1018.5 hPa 0.0 l/m 6.0 km/h (2 Bft) W 0.00 h 184 W/m 12.5 C 16.4 C 10.5 km/h (2 Bft)
28.08.2010 16:00 15.1 C 81 % 1018.6 hPa 0.0 l/m 10.1 km/h (2 Bft) W 0.00 h 133 W/m 11.9 C 15.1 C 17.0 km/h (3 Bft)
28.08.2010 17:00 15.6 C 81 % 1018.7 hPa 0.0 l/m 2.5 km/h (1 Bft) W-NW 0.18 h 200 W/m 12.3 C 15.6 C 4.7 km/h (1 Bft)
28.08.2010 18:00 16.0 C 76 % 1018.7 hPa 0.0 l/m 1.9 km/h (1 Bft) S-SO 0.82 h 202 W/m 11.8 C 16.0 C 4.1 km/h (1 Bft)
28.08.2010 19:00 15.8 C 77 % 1019.0 hPa 0.0 l/m 2.3 km/h (1 Bft) W 0.60 h 68 W/m 11.7 C 15.8 C 5.0 km/h (1 Bft)
28.08.2010 20:00 13.9 C 82 % 1019.6 hPa 0.0 l/m 1.2 km/h (1 Bft) SO 0.00 h 7 W/m 10.8 C 13.9 C 2.8 km/h (1 Bft)
28.08.2010 21:00 13.3 C 85 % 1020.2 hPa 0.0 l/m 1.9 km/h (1 Bft) S-SO 0.00 h 0 W/m 10.8 C 13.3 C 4.1 km/h (1 Bft)
28.08.2010 22:00 12.3 C 91 % 1020.7 hPa 0.0 l/m 0.8 km/h (0 Bft) SO 0.00 h 0 W/m 10.8 C 12.3 C 1.6 km/h (1 Bft)
28.08.2010 23:00 11.6 C 93 % 1020.7 hPa 0.0 l/m 0.5 km/h (0 Bft) O-SO 0.00 h 0 W/m 10.6 C 11.6 C 1.6 km/h (1 Bft)
29.08.2010 00:00 11.1 C 95 % 1020.8 hPa 0.0 l/m 1.0 km/h (0 Bft) O-SO 0.00 h 0 W/m 10.4 C 11.1 C 1.6 km/h (1 Bft)
29.08.2010 01:00 11.1 C 96 % 1020.7 hPa 0.0 l/m 1.3 km/h (1 Bft) O-SO 0.00 h 0 W/m 10.5 C 11.1 C 2.3 km/h (1 Bft)
29.08.2010 02:00 11.1 C 96 % 1020.0 hPa 0.0 l/m 0.2 km/h (0 Bft) O-SO 0.00 h 0 W/m 10.5 C 11.1 C 0.7 km/h (0 Bft)
29.08.2010 03:00 11.1 C 97 % 1020.1 hPa 0.0 l/m 0.0 km/h (0 Bft) N 0.00 h 0 W/m 10.6 C 11.1 C 0.0 km/h (0 Bft)
29.08.2010 04:00 10.8 C 97 % 1020.0 hPa 0.0 l/m 0.2 km/h (0 Bft) O-SO 0.00 h 0 W/m 10.4 C 10.8 C 0.7 km/h (0 Bft)
29.08.2010 05:00 10.7 C 98 % 1019.8 hPa 0.0 l/m 0.0 km/h (0 Bft) N 0.00 h 0 W/m 10.4 C 10.7 C 0.3 km/h (0 Bft)
29.08.2010 06:00 10.7 C 98 % 1019.6 hPa 0.0 l/m 0.0 km/h (0 Bft) N 0.00 h 7 W/m 10.3 C 10.7 C 0.1 km/h (0 Bft)
29.08.2010 07:00 10.4 C 98 % 1019.8 hPa 0.0 l/m 0.0 km/h (0 Bft) N 0.00 h 34 W/m 10.0 C 10.4 C 0.0 km/h (0 Bft)
29.08.2010 08:00 12.4 C 95 % 1019.7 hPa 0.0 l/m 0.1 km/h (0 Bft) O-SO 0.92 h 235 W/m 11.6 C 12.4 C 0.5 km/h (0 Bft)
29.08.2010 09:00 14.3 C 85 % 1019.3 hPa 0.0 l/m 2.9 km/h (1 Bft) S-SO 1.00 h 388 W/m 11.8 C 14.3 C 6.5 km/h (2 Bft)
29.08.2010 10:00 15.4 C 81 % 1019.1 hPa 0.0 l/m 2.2 km/h (1 Bft) S 0.32 h 292 W/m 12.2 C 15.4 C 5.3 km/h (1 Bft)
29.08.2010 11:00 16.7 C 74 % 1018.8 hPa 0.0 l/m 4.5 km/h (1 Bft) W 0.65 h 491 W/m 12.0 C 16.7 C 8.0 km/h (2 Bft)
29.08.2010 12:00 16.6 C 67 % 1018.3 hPa 0.0 l/m 9.6 km/h (2 Bft) W 0.37 h 439 W/m 10.4 C 16.6 C 15.6 km/h (3 Bft)
29.08.2010 13:00 16.9 C 66 % 1017.9 hPa 0.0 l/m 9.3 km/h (2 Bft) W 0.45 h 451 W/m 10.5 C 16.9 C 15.0 km/h (3 Bft)
29.08.2010 14:00 18.2 C 61 % 1017.3 hPa 0.0 l/m 9.4 km/h (2 Bft) W 0.72 h 678 W/m 10.5 C 18.2 C 15.3 km/h (3 Bft)
29.08.2010 15:00 18.0 C 59 % 1016.8 hPa 0.0 l/m 12.9 km/h (3 Bft) W 0.47 h 456 W/m 9.9 C 18.0 C 20.1 km/h (4 Bft)
29.08.2010 16:00 18.4 C 58 % 1016.3 hPa 0.0 l/m 13.3 km/h (3 Bft) W 0.72 h 454 W/m 10.1 C 18.4 C 20.5 km/h (4 Bft)
29.08.2010 17:00 17.4 C 63 % 1015.9 hPa 0.0 l/m 8.1 km/h (2 Bft) W 0.08 h 203 W/m 10.3 C 17.4 C 12.4 km/h (3 Bft)
29.08.2010 18:00 16.6 C 63 % 1015.5 hPa 0.0 l/m 8.9 km/h (2 Bft) W 0.00 h 60 W/m 9.5 C 16.6 C 13.7 km/h (3 Bft)
29.08.2010 19:00 16.0 C 65 % 1015.1 hPa 0.0 l/m 8.0 km/h (2 Bft) W 0.00 h 23 W/m 9.5 C 16.0 C 12.8 km/h (3 Bft)
29.08.2010 20:00 15.4 C 70 % 1014.8 hPa 0.0 l/m 5.6 km/h (1 Bft) W 0.00 h 0 W/m 9.8 C 15.4 C 8.8 km/h (2 Bft)
29.08.2010 21:00 15.0 C 73 % 1014.5 hPa 0.0 l/m 3.8 km/h (1 Bft) W 0.00 h 0 W/m 10.1 C 15.0 C 7.3 km/h (2 Bft)
29.08.2010 22:00 14.5 C 75 % 1014.4 hPa 0.2 l/m 9.5 km/h (2 Bft) W 0.00 h 0 W/m 10.1 C 14.5 C 15.3 km/h (3 Bft)
29.08.2010 23:00 12.7 C 90 % 1014.4 hPa 0.8 l/m 1.6 km/h (1 Bft) W-NW 0.00 h 0 W/m 11.2 C 12.7 C 3.2 km/h (1 Bft)
Min-Datum _ 29.08.10 25.08.10 27.08.10 - 23.08.10 - - - 29.08.10 29.08.10 23.08.10
_ Min-Zeit 07:26 15:47 00:30 - 00:00 - - - 15:27 07:28 00:00
Minimum _ 10.2 C 49 % 1005.8 hPa - 0.0 km/h (0 Bft) - - - 8.8 C 10.2 C 0.0 km/h (0 Bft)
Max-Datum _ 26.08.10 23.08.10 28.08.10 27.08.10 24.08.10 - 23.08.10 29.08.10 26.08.10 26.08.10 24.08.10
_ Max-Zeit 16:40 08:50 23:45 10:01 16:50 - 06:44 12:53 19:23 16:39 14:55
Maximum _ 30.2 C 98 % 1020.9 hPa 5.0 l/m 33.9 km/h
W (5 Bft)
- 0.02 h 998 W/m 22.4 C 30.2 C 57.4 km/h
W (7 Bft)
Durchschnitt _ 18.2 C 86 % 1013.6 hPa #33.8 l/m 3.5 km/h (1 Bft) W #35:39 h 267 W/m 15.5 C 18.2 C 6.1 km/h (2 Bft)
© Kaiko 2010